sensor_id;sensor_type;location;lat;lon;timestamp;pressure;altitude;pressure_sealevel;temperature;humidity
65013;BME280;51715;39.432;-77.518;2022-08-21T00:01:57;99911.53;;;30.91;35.43
65013;BME280;51715;39.432;-77.518;2022-08-21T00:04:26;99906.76;;;29.57;37.84
65013;BME280;51715;39.432;-77.518;2022-08-21T00:06:55;99905.79;;;29.57;37.77
65013;BME280;51715;39.432;-77.518;2022-08-21T00:09:25;99905.75;;;29.98;37.03
65013;BME280;51715;39.432;-77.518;2022-08-21T00:11:53;99904.73;;;30.25;36.69
65013;BME280;51715;39.432;-77.518;2022-08-21T00:14:21;99903.97;;;30.06;35.85
65013;BME280;51715;39.432;-77.518;2022-08-21T00:16:50;99908.76;;;30.02;37.35
65013;BME280;51715;39.432;-77.518;2022-08-21T00:19:20;99912.69;;;30.05;36.76
65013;BME280;51715;39.432;-77.518;2022-08-21T00:21:48;99915.74;;;30.16;36.79
65013;BME280;51715;39.432;-77.518;2022-08-21T00:24:17;99910.01;;;30.05;37.26
65013;BME280;51715;39.432;-77.518;2022-08-21T00:26:45;99910.43;;;30.20;37.29
65013;BME280;51715;39.432;-77.518;2022-08-21T00:29:14;99912.36;;;29.53;37.85
65013;BME280;51715;39.432;-77.518;2022-08-21T00:31:42;99917.95;;;29.57;38.79
65013;BME280;51715;39.432;-77.518;2022-08-21T00:34:12;99921.70;;;29.62;39.43
65013;BME280;51715;39.432;-77.518;2022-08-21T00:36:41;99926.34;;;29.95;37.51
65013;BME280;51715;39.432;-77.518;2022-08-21T00:39:10;99925.42;;;30.10;37.58
65013;BME280;51715;39.432;-77.518;2022-08-21T00:41:40;99925.78;;;29.23;38.74
65013;BME280;51715;39.432;-77.518;2022-08-21T00:44:10;99924.62;;;29.42;38.56
65013;BME280;51715;39.432;-77.518;2022-08-21T00:46:40;99923.96;;;29.43;39.57
65013;BME280;51715;39.432;-77.518;2022-08-21T00:49:09;99922.05;;;29.38;38.62
65013;BME280;51715;39.432;-77.518;2022-08-21T00:51:42;99925.62;;;29.65;38.48
65013;BME280;51715;39.432;-77.518;2022-08-21T00:54:12;99930.21;;;29.94;37.81
65013;BME280;51715;39.432;-77.518;2022-08-21T00:56:42;99935.18;;;29.75;38.29
65013;BME280;51715;39.432;-77.518;2022-08-21T00:59:11;99933.43;;;30.03;37.25
65013;BME280;51715;39.432;-77.518;2022-08-21T01:01:40;99937.20;;;29.61;38.78
65013;BME280;51715;39.432;-77.518;2022-08-21T01:04:08;99936.17;;;29.61;39.17
65013;BME280;51715;39.432;-77.518;2022-08-21T01:06:36;99936.77;;;29.90;38.00
65013;BME280;51715;39.432;-77.518;2022-08-21T01:09:04;99934.10;;;30.06;38.22
65013;BME280;51715;39.432;-77.518;2022-08-21T01:11:32;99930.99;;;29.30;38.81
65013;BME280;51715;39.432;-77.518;2022-08-21T01:14:02;99930.07;;;29.80;38.54
65013;BME280;51715;39.432;-77.518;2022-08-21T01:16:30;99930.27;;;29.52;37.77
65013;BME280;51715;39.432;-77.518;2022-08-21T01:18:59;99929.45;;;29.76;38.17
65013;BME280;51715;39.432;-77.518;2022-08-21T01:21:28;99932.45;;;30.03;37.31
65013;BME280;51715;39.432;-77.518;2022-08-21T01:23:58;99937.83;;;29.94;37.87
65013;BME280;51715;39.432;-77.518;2022-08-21T01:26:30;99944.85;;;29.96;37.63
65013;BME280;51715;39.432;-77.518;2022-08-21T01:29:02;99945.83;;;29.94;37.19
65013;BME280;51715;39.432;-77.518;2022-08-21T01:31:31;99952.62;;;30.30;37.37
65013;BME280;51715;39.432;-77.518;2022-08-21T01:34:01;99952.64;;;30.33;37.52
65013;BME280;51715;39.432;-77.518;2022-08-21T01:36:30;99947.76;;;29.46;38.54
65013;BME280;51715;39.432;-77.518;2022-08-21T01:38:59;99946.02;;;29.46;38.72
65013;BME280;51715;39.432;-77.518;2022-08-21T01:41:27;99948.53;;;29.77;38.12
65013;BME280;51715;39.432;-77.518;2022-08-21T01:43:56;99955.14;;;29.69;38.51
65013;BME280;51715;39.432;-77.518;2022-08-21T01:46:24;99957.32;;;29.81;38.11
65013;BME280;51715;39.432;-77.518;2022-08-21T01:48:52;99956.21;;;29.69;38.64
65013;BME280;51715;39.432;-77.518;2022-08-21T01:51:21;99958.92;;;29.84;38.23
65013;BME280;51715;39.432;-77.518;2022-08-21T01:53:49;99962.36;;;29.83;37.76
65013;BME280;51715;39.432;-77.518;2022-08-21T01:56:18;99963.79;;;29.68;38.42
65013;BME280;51715;39.432;-77.518;2022-08-21T01:58:48;99966.53;;;29.78;38.06
65013;BME280;51715;39.432;-77.518;2022-08-21T02:01:16;99970.04;;;29.28;38.70
65013;BME280;51715;39.432;-77.518;2022-08-21T02:03:45;99966.51;;;29.33;38.70
65013;BME280;51715;39.432;-77.518;2022-08-21T02:06:16;99958.13;;;29.53;39.00
65013;BME280;51715;39.432;-77.518;2022-08-21T02:08:44;99954.00;;;29.50;38.33
65013;BME280;51715;39.432;-77.518;2022-08-21T02:11:12;99954.56;;;29.65;38.93
65013;BME280;51715;39.432;-77.518;2022-08-21T02:13:42;99958.71;;;29.68;38.84
65013;BME280;51715;39.432;-77.518;2022-08-21T02:16:12;99959.11;;;29.73;38.94
65013;BME280;51715;39.432;-77.518;2022-08-21T02:18:41;99957.39;;;29.54;38.44
65013;BME280;51715;39.432;-77.518;2022-08-21T02:21:10;99949.84;;;29.55;38.96
65013;BME280;51715;39.432;-77.518;2022-08-21T02:23:39;99950.12;;;29.72;39.13
65013;BME280;51715;39.432;-77.518;2022-08-21T02:26:08;99954.40;;;29.39;38.90
65013;BME280;51715;39.432;-77.518;2022-08-21T02:28:37;99951.57;;;29.47;38.15
65013;BME280;51715;39.432;-77.518;2022-08-21T02:31:08;99949.21;;;29.29;39.40
65013;BME280;51715;39.432;-77.518;2022-08-21T02:33:36;99948.08;;;29.45;39.00
65013;BME280;51715;39.432;-77.518;2022-08-21T02:36:05;99948.63;;;29.39;38.42
65013;BME280;51715;39.432;-77.518;2022-08-21T02:38:35;99940.90;;;29.26;38.29
65013;BME280;51715;39.432;-77.518;2022-08-21T02:41:05;99940.95;;;28.95;39.16
65013;BME280;51715;39.432;-77.518;2022-08-21T02:43:34;99945.53;;;29.27;39.64
65013;BME280;51715;39.432;-77.518;2022-08-21T02:46:04;99945.75;;;29.35;38.80
65013;BME280;51715;39.432;-77.518;2022-08-21T02:48:34;99943.08;;;29.09;38.93
65013;BME280;51715;39.432;-77.518;2022-08-21T02:51:05;99938.75;;;29.37;39.88
65013;BME280;51715;39.432;-77.518;2022-08-21T02:53:34;99938.48;;;28.78;39.37
65013;BME280;51715;39.432;-77.518;2022-08-21T02:56:06;99934.87;;;29.16;38.40
65013;BME280;51715;39.432;-77.518;2022-08-21T02:58:40;99936.11;;;29.08;39.07
65013;BME280;51715;39.432;-77.518;2022-08-21T03:01:10;99939.77;;;29.22;38.45
65013;BME280;51715;39.432;-77.518;2022-08-21T03:03:40;99945.01;;;29.09;38.74
65013;BME280;51715;39.432;-77.518;2022-08-21T03:06:11;99947.97;;;29.13;38.14
65013;BME280;51715;39.432;-77.518;2022-08-21T03:08:40;99946.07;;;28.86;38.76
65013;BME280;51715;39.432;-77.518;2022-08-21T03:11:09;99948.96;;;28.98;38.44
65013;BME280;51715;39.432;-77.518;2022-08-21T03:13:38;99952.33;;;29.46;38.19
65013;BME280;51715;39.432;-77.518;2022-08-21T03:16:07;99950.50;;;29.47;38.26
65013;BME280;51715;39.432;-77.518;2022-08-21T03:18:37;99954.85;;;29.61;38.32
65013;BME280;51715;39.432;-77.518;2022-08-21T03:21:07;99952.24;;;28.84;38.61
65013;BME280;51715;39.432;-77.518;2022-08-21T03:23:35;99949.28;;;29.27;38.61
65013;BME280;51715;39.432;-77.518;2022-08-21T03:26:04;99950.87;;;28.97;39.20
65013;BME280;51715;39.432;-77.518;2022-08-21T03:28:32;99951.26;;;28.75;39.12
65013;BME280;51715;39.432;-77.518;2022-08-21T03:31:00;99951.98;;;29.12;38.99
65013;BME280;51715;39.432;-77.518;2022-08-21T03:33:29;99948.37;;;29.12;39.29
65013;BME280;51715;39.432;-77.518;2022-08-21T03:35:59;99952.01;;;28.95;38.82
65013;BME280;51715;39.432;-77.518;2022-08-21T03:38:28;99950.53;;;28.77;39.07
65013;BME280;51715;39.432;-77.518;2022-08-21T03:40:59;99950.81;;;28.74;38.98
65013;BME280;51715;39.432;-77.518;2022-08-21T03:43:27;99956.50;;;28.73;38.90
65013;BME280;51715;39.432;-77.518;2022-08-21T03:45:56;99959.11;;;28.95;39.16
65013;BME280;51715;39.432;-77.518;2022-08-21T03:48:23;99965.07;;;28.72;39.36
65013;BME280;51715;39.432;-77.518;2022-08-21T03:50:52;99960.54;;;29.07;39.42
65013;BME280;51715;39.432;-77.518;2022-08-21T03:53:21;99961.17;;;28.72;39.30
65013;BME280;51715;39.432;-77.518;2022-08-21T03:55:50;99962.67;;;28.83;39.76
65013;BME280;51715;39.432;-77.518;2022-08-21T03:58:21;99963.59;;;28.65;39.84
65013;BME280;51715;39.432;-77.518;2022-08-21T04:03:47;99955.16;;;28.74;38.80
65013;BME280;51715;39.432;-77.518;2022-08-21T04:06:16;99948.99;;;28.73;38.80
65013;BME280;51715;39.432;-77.518;2022-08-21T04:08:44;99943.88;;;28.64;39.27
65013;BME280;51715;39.432;-77.518;2022-08-21T04:11:13;99946.86;;;28.61;39.19
65013;BME280;51715;39.432;-77.518;2022-08-21T04:13:42;99943.79;;;28.98;39.68
65013;BME280;51715;39.432;-77.518;2022-08-21T04:16:11;99935.49;;;29.04;39.87
65013;BME280;51715;39.432;-77.518;2022-08-21T04:18:41;99930.38;;;28.62;39.93
65013;BME280;51715;39.432;-77.518;2022-08-21T04:21:10;99932.49;;;28.75;40.07
65013;BME280;51715;39.432;-77.518;2022-08-21T04:23:38;99933.12;;;28.56;40.63
65013;BME280;51715;39.432;-77.518;2022-08-21T04:26:07;99929.25;;;28.50;40.57
65013;BME280;51715;39.432;-77.518;2022-08-21T04:28:35;99928.55;;;27.94;41.63
65013;BME280;51715;39.432;-77.518;2022-08-21T04:31:04;99930.68;;;27.25;43.10
65013;BME280;51715;39.432;-77.518;2022-08-21T04:33:32;99927.31;;;27.51;42.50
65013;BME280;51715;39.432;-77.518;2022-08-21T04:36:01;99925.55;;;27.81;41.49
65013;BME280;51715;39.432;-77.518;2022-08-21T04:38:29;99927.86;;;27.71;42.09
65013;BME280;51715;39.432;-77.518;2022-08-21T04:40:58;99929.42;;;27.70;42.50
65013;BME280;51715;39.432;-77.518;2022-08-21T04:43:28;99935.18;;;27.40;42.68
65013;BME280;51715;39.432;-77.518;2022-08-21T04:45:56;99933.33;;;27.52;42.75
65013;BME280;51715;39.432;-77.518;2022-08-21T04:48:24;99931.58;;;27.96;42.74
65013;BME280;51715;39.432;-77.518;2022-08-21T04:50:57;99927.30;;;27.66;42.31
65013;BME280;51715;39.432;-77.518;2022-08-21T04:53:32;99925.41;;;27.79;42.35
65013;BME280;51715;39.432;-77.518;2022-08-21T04:56:05;99926.72;;;27.93;42.13
65013;BME280;51715;39.432;-77.518;2022-08-21T04:58:36;99925.25;;;27.84;42.09
65013;BME280;51715;39.432;-77.518;2022-08-21T05:01:06;99926.48;;;27.99;42.15
65013;BME280;51715;39.432;-77.518;2022-08-21T05:03:36;99925.93;;;27.78;42.19
65013;BME280;51715;39.432;-77.518;2022-08-21T05:06:08;99925.92;;;27.63;41.69
65013;BME280;51715;39.432;-77.518;2022-08-21T05:08:39;99921.43;;;27.53;41.78
65013;BME280;51715;39.432;-77.518;2022-08-21T05:11:08;99917.54;;;27.87;41.79
65013;BME280;51715;39.432;-77.518;2022-08-21T05:13:37;99914.19;;;27.89;41.53
65013;BME280;51715;39.432;-77.518;2022-08-21T05:16:06;99911.42;;;28.19;41.51
65013;BME280;51715;39.432;-77.518;2022-08-21T05:18:34;99903.73;;;28.22;41.62
65013;BME280;51715;39.432;-77.518;2022-08-21T05:21:02;99901.15;;;28.25;41.30
65013;BME280;51715;39.432;-77.518;2022-08-21T05:23:31;99902.56;;;27.78;41.84
65013;BME280;51715;39.432;-77.518;2022-08-21T05:25:59;99904.39;;;28.06;41.69
65013;BME280;51715;39.432;-77.518;2022-08-21T05:28:28;99903.61;;;28.03;42.08
65013;BME280;51715;39.432;-77.518;2022-08-21T05:30:56;99902.01;;;28.14;41.72
65013;BME280;51715;39.432;-77.518;2022-08-21T05:33:25;99902.64;;;27.97;41.63
65013;BME280;51715;39.432;-77.518;2022-08-21T05:35:54;99905.94;;;27.88;41.44
65013;BME280;51715;39.432;-77.518;2022-08-21T05:38:23;99905.87;;;28.13;41.41
65013;BME280;51715;39.432;-77.518;2022-08-21T05:40:51;99908.80;;;28.15;41.47
65013;BME280;51715;39.432;-77.518;2022-08-21T05:43:20;99912.19;;;27.72;41.59
65013;BME280;51715;39.432;-77.518;2022-08-21T05:45:48;99914.45;;;28.00;41.26
65013;BME280;51715;39.432;-77.518;2022-08-21T05:48:21;99911.51;;;28.22;41.56
65013;BME280;51715;39.432;-77.518;2022-08-21T05:50:51;99914.53;;;27.95;41.73
65013;BME280;51715;39.432;-77.518;2022-08-21T05:53:20;99913.39;;;27.71;41.59
65013;BME280;51715;39.432;-77.518;2022-08-21T05:55:50;99913.75;;;27.95;41.96
65013;BME280;51715;39.432;-77.518;2022-08-21T05:58:20;99922.95;;;27.93;42.09
65013;BME280;51715;39.432;-77.518;2022-08-21T06:00:50;99928.16;;;27.95;41.95
65013;BME280;51715;39.432;-77.518;2022-08-21T06:03:20;99923.16;;;27.84;42.41
65013;BME280;51715;39.432;-77.518;2022-08-21T06:05:49;99920.52;;;28.22;42.07
65013;BME280;51715;39.432;-77.518;2022-08-21T06:08:18;99919.33;;;27.87;42.45
65013;BME280;51715;39.432;-77.518;2022-08-21T06:10:49;99916.90;;;27.72;43.13
65013;BME280;51715;39.432;-77.518;2022-08-21T06:13:19;99912.13;;;27.56;43.35
65013;BME280;51715;39.432;-77.518;2022-08-21T06:15:49;99910.44;;;27.47;43.04
65013;BME280;51715;39.432;-77.518;2022-08-21T06:18:17;99907.02;;;27.37;43.27
65013;BME280;51715;39.432;-77.518;2022-08-21T06:20:46;99905.08;;;27.38;43.64
65013;BME280;51715;39.432;-77.518;2022-08-21T06:23:14;99907.56;;;27.23;44.47
65013;BME280;51715;39.432;-77.518;2022-08-21T06:25:43;99908.10;;;27.28;43.76
65013;BME280;51715;39.432;-77.518;2022-08-21T06:28:11;99911.93;;;27.39;43.65
65013;BME280;51715;39.432;-77.518;2022-08-21T06:30:40;99908.04;;;27.54;43.09
65013;BME280;51715;39.432;-77.518;2022-08-21T06:33:08;99907.03;;;27.60;43.41
65013;BME280;51715;39.432;-77.518;2022-08-21T06:35:37;99901.17;;;27.68;42.97
65013;BME280;51715;39.432;-77.518;2022-08-21T06:38:05;99902.67;;;27.71;43.19
65013;BME280;51715;39.432;-77.518;2022-08-21T06:40:34;99903.52;;;27.74;43.43
65013;BME280;51715;39.432;-77.518;2022-08-21T06:43:07;99900.61;;;27.78;43.10
65013;BME280;51715;39.432;-77.518;2022-08-21T06:45:36;99903.68;;;27.81;43.19
65013;BME280;51715;39.432;-77.518;2022-08-21T06:48:06;99907.71;;;27.81;43.30
65013;BME280;51715;39.432;-77.518;2022-08-21T06:50:35;99905.49;;;27.78;42.72
65013;BME280;51715;39.432;-77.518;2022-08-21T06:53:06;99902.69;;;27.77;42.54
65013;BME280;51715;39.432;-77.518;2022-08-21T06:55:35;99909.24;;;27.70;43.02
65013;BME280;51715;39.432;-77.518;2022-08-21T06:58:05;99908.30;;;27.47;42.51
65013;BME280;51715;39.432;-77.518;2022-08-21T07:00:33;99907.58;;;27.54;43.28
65013;BME280;51715;39.432;-77.518;2022-08-21T07:03:02;99904.69;;;27.46;43.48
65013;BME280;51715;39.432;-77.518;2022-08-21T07:05:31;99903.17;;;27.41;43.73
65013;BME280;51715;39.432;-77.518;2022-08-21T07:08:01;99904.03;;;27.25;44.12
65013;BME280;51715;39.432;-77.518;2022-08-21T07:10:29;99903.41;;;27.42;44.31
65013;BME280;51715;39.432;-77.518;2022-08-21T07:12:58;99901.09;;;27.22;44.24
65013;BME280;51715;39.432;-77.518;2022-08-21T07:15:27;99900.52;;;27.25;44.14
65013;BME280;51715;39.432;-77.518;2022-08-21T07:17:55;99901.30;;;27.07;43.84
65013;BME280;51715;39.432;-77.518;2022-08-21T07:20:22;99904.15;;;27.34;43.79
65013;BME280;51715;39.432;-77.518;2022-08-21T07:22:51;99905.62;;;27.33;43.67
65013;BME280;51715;39.432;-77.518;2022-08-21T07:25:19;99903.05;;;27.31;43.56
65013;BME280;51715;39.432;-77.518;2022-08-21T07:27:48;99905.21;;;27.41;43.90
65013;BME280;51715;39.432;-77.518;2022-08-21T07:30:17;99907.06;;;27.58;44.06
65013;BME280;51715;39.432;-77.518;2022-08-21T07:32:45;99904.41;;;27.29;44.14
65013;BME280;51715;39.432;-77.518;2022-08-21T07:35:13;99902.44;;;27.18;44.38
65013;BME280;51715;39.432;-77.518;2022-08-21T07:37:41;99903.63;;;26.91;44.44
65013;BME280;51715;39.432;-77.518;2022-08-21T07:40:11;99899.78;;;27.08;44.45
65013;BME280;51715;39.432;-77.518;2022-08-21T07:42:41;99899.45;;;27.29;44.39
65013;BME280;51715;39.432;-77.518;2022-08-21T07:45:12;99901.01;;;27.04;44.92
65013;BME280;51715;39.432;-77.518;2022-08-21T07:47:41;99897.01;;;26.90;44.74
65013;BME280;51715;39.432;-77.518;2022-08-21T07:50:10;99896.86;;;26.98;44.71
65013;BME280;51715;39.432;-77.518;2022-08-21T07:52:38;99895.95;;;26.61;45.13
65013;BME280;51715;39.432;-77.518;2022-08-21T07:55:08;99897.89;;;26.76;45.22
65013;BME280;51715;39.432;-77.518;2022-08-21T07:57:37;99901.43;;;26.79;45.07
65013;BME280;51715;39.432;-77.518;2022-08-21T08:00:09;99901.00;;;26.96;44.53
65013;BME280;51715;39.432;-77.518;2022-08-21T08:02:37;99901.74;;;27.02;44.32
65013;BME280;51715;39.432;-77.518;2022-08-21T08:05:09;99902.18;;;27.00;44.65
65013;BME280;51715;39.432;-77.518;2022-08-21T08:07:38;99909.07;;;26.73;44.70
65013;BME280;51715;39.432;-77.518;2022-08-21T08:10:09;99910.61;;;26.71;44.75
65013;BME280;51715;39.432;-77.518;2022-08-21T08:12:41;99913.19;;;27.08;44.10
65013;BME280;51715;39.432;-77.518;2022-08-21T08:15:11;99914.31;;;27.17;43.80
65013;BME280;51715;39.432;-77.518;2022-08-21T08:17:42;99908.68;;;26.95;44.29
65013;BME280;51715;39.432;-77.518;2022-08-21T08:20:12;99909.08;;;26.82;44.55
65013;BME280;51715;39.432;-77.518;2022-08-21T08:22:40;99911.31;;;26.75;44.86
65013;BME280;51715;39.432;-77.518;2022-08-21T08:25:11;99911.00;;;26.63;45.17
65013;BME280;51715;39.432;-77.518;2022-08-21T08:27:40;99912.73;;;26.57;45.40
65013;BME280;51715;39.432;-77.518;2022-08-21T08:30:13;99911.08;;;26.51;45.46
65013;BME280;51715;39.432;-77.518;2022-08-21T08:32:41;99905.15;;;26.76;45.43
65013;BME280;51715;39.432;-77.518;2022-08-21T08:35:10;99901.86;;;26.77;45.56
65013;BME280;51715;39.432;-77.518;2022-08-21T08:37:40;99893.81;;;26.51;45.65
65013;BME280;51715;39.432;-77.518;2022-08-21T08:40:12;99892.61;;;26.79;45.42
65013;BME280;51715;39.432;-77.518;2022-08-21T08:42:41;99894.44;;;26.45;45.66
65013;BME280;51715;39.432;-77.518;2022-08-21T08:45:12;99896.62;;;26.51;45.01
65013;BME280;51715;39.432;-77.518;2022-08-21T08:47:44;99897.08;;;26.52;44.90
65013;BME280;51715;39.432;-77.518;2022-08-21T08:50:19;99896.40;;;27.02;45.06
65013;BME280;51715;39.432;-77.518;2022-08-21T08:52:54;99899.02;;;26.50;45.22
65013;BME280;51715;39.432;-77.518;2022-08-21T08:55:32;99899.95;;;26.51;45.13
65013;BME280;51715;39.432;-77.518;2022-08-21T08:58:01;99898.91;;;26.57;45.17
65013;BME280;51715;39.432;-77.518;2022-08-21T09:00:31;99895.14;;;26.57;45.29
65013;BME280;51715;39.432;-77.518;2022-08-21T09:03:02;99898.96;;;26.57;45.69
65013;BME280;51715;39.432;-77.518;2022-08-21T09:05:38;99896.63;;;26.42;46.10
65013;BME280;51715;39.432;-77.518;2022-08-21T09:08:23;99896.37;;;26.41;46.03
65013;BME280;51715;39.432;-77.518;2022-08-21T09:11:02;99890.95;;;26.44;46.14
65013;BME280;51715;39.432;-77.518;2022-08-21T09:13:42;99891.69;;;26.80;45.96
65013;BME280;51715;39.432;-77.518;2022-08-21T09:16:24;99893.92;;;26.60;45.87
65013;BME280;51715;39.432;-77.518;2022-08-21T09:19:04;99896.45;;;26.56;45.81
65013;BME280;51715;39.432;-77.518;2022-08-21T09:21:41;99895.20;;;26.51;45.66
65013;BME280;51715;39.432;-77.518;2022-08-21T09:24:25;99899.70;;;26.59;45.45
65013;BME280;51715;39.432;-77.518;2022-08-21T09:27:02;99899.59;;;26.72;45.19
65013;BME280;51715;39.432;-77.518;2022-08-21T09:29:34;99894.26;;;26.70;44.86
65013;BME280;51715;39.432;-77.518;2022-08-21T09:32:14;99890.90;;;26.98;44.83
65013;BME280;51715;39.432;-77.518;2022-08-21T09:34:53;99886.07;;;26.99;44.98
65013;BME280;51715;39.432;-77.518;2022-08-21T09:37:22;99880.79;;;26.62;45.26
65013;BME280;51715;39.432;-77.518;2022-08-21T09:39:51;99877.84;;;26.92;45.10
65013;BME280;51715;39.432;-77.518;2022-08-21T09:42:25;99878.18;;;26.76;44.71
65013;BME280;51715;39.432;-77.518;2022-08-21T09:45:12;99887.12;;;26.88;44.56
65013;BME280;51715;39.432;-77.518;2022-08-21T09:47:41;99895.90;;;27.15;43.95
65013;BME280;51715;39.432;-77.518;2022-08-21T09:50:14;99897.51;;;27.11;43.83
65013;BME280;51715;39.432;-77.518;2022-08-21T09:52:46;99898.24;;;26.63;43.98
65013;BME280;51715;39.432;-77.518;2022-08-21T09:55:19;99893.64;;;27.03;44.45
65013;BME280;51715;39.432;-77.518;2022-08-21T09:57:48;99886.59;;;26.82;44.53
65013;BME280;51715;39.432;-77.518;2022-08-21T10:00:23;99884.06;;;26.31;44.68
65013;BME280;51715;39.432;-77.518;2022-08-21T10:02:51;99888.72;;;27.07;44.47
65013;BME280;51715;39.432;-77.518;2022-08-21T10:05:24;99892.33;;;26.82;44.22
65013;BME280;51715;39.432;-77.518;2022-08-21T10:07:53;99891.52;;;27.00;44.27
65013;BME280;51715;39.432;-77.518;2022-08-21T10:10:25;99887.87;;;26.92;44.40
65013;BME280;51715;39.432;-77.518;2022-08-21T10:12:58;99885.66;;;26.90;44.42
65013;BME280;51715;39.432;-77.518;2022-08-21T10:15:38;99884.61;;;26.62;44.59
65013;BME280;51715;39.432;-77.518;2022-08-21T10:18:16;99888.67;;;26.58;44.86
65013;BME280;51715;39.432;-77.518;2022-08-21T10:20:54;99896.42;;;26.49;44.96
65013;BME280;51715;39.432;-77.518;2022-08-21T10:23:51;99895.37;;;26.79;44.94
65013;BME280;51715;39.432;-77.518;2022-08-21T10:26:32;99897.35;;;26.54;44.81
65013;BME280;51715;39.432;-77.518;2022-08-21T10:29:07;99898.87;;;27.06;44.88
65013;BME280;51715;39.432;-77.518;2022-08-21T10:31:45;99904.92;;;26.67;44.85
65013;BME280;51715;39.432;-77.518;2022-08-21T10:34:32;99908.81;;;27.12;44.96
65013;BME280;51715;39.432;-77.518;2022-08-21T10:37:27;99910.53;;;27.08;44.99
65013;BME280;51715;39.432;-77.518;2022-08-21T10:40:07;99915.30;;;27.07;44.94
65013;BME280;51715;39.432;-77.518;2022-08-21T10:42:46;99926.08;;;27.02;45.19
65013;BME280;51715;39.432;-77.518;2022-08-21T10:45:25;99931.21;;;27.02;45.15
65013;BME280;51715;39.432;-77.518;2022-08-21T10:48:03;99933.97;;;26.85;45.26
65013;BME280;51715;39.432;-77.518;2022-08-21T10:50:36;99935.98;;;26.90;45.24
65013;BME280;51715;39.432;-77.518;2022-08-21T10:53:17;99934.84;;;26.93;45.32
65013;BME280;51715;39.432;-77.518;2022-08-21T10:55:56;99935.20;;;26.85;45.75
65013;BME280;51715;39.432;-77.518;2022-08-21T10:58:29;99938.69;;;26.69;45.68
65013;BME280;51715;39.432;-77.518;2022-08-21T11:01:13;99946.61;;;26.78;45.64
65013;BME280;51715;39.432;-77.518;2022-08-21T11:03:46;99949.50;;;26.90;45.57
65013;BME280;51715;39.432;-77.518;2022-08-21T11:06:22;99945.82;;;26.98;45.53
65013;BME280;51715;39.432;-77.518;2022-08-21T11:08:53;99944.24;;;27.01;45.53
65013;BME280;51715;39.432;-77.518;2022-08-21T11:11:26;99943.76;;;26.97;45.57
65013;BME280;51715;39.432;-77.518;2022-08-21T11:14:00;99940.92;;;27.09;45.69
65013;BME280;51715;39.432;-77.518;2022-08-21T11:16:36;99940.55;;;27.20;45.68
65013;BME280;51715;39.432;-77.518;2022-08-21T11:19:11;99942.49;;;27.29;45.27
65013;BME280;51715;39.432;-77.518;2022-08-21T11:21:45;99950.47;;;27.22;45.44
65013;BME280;51715;39.432;-77.518;2022-08-21T11:24:33;99945.08;;;27.59;45.13
65013;BME280;51715;39.432;-77.518;2022-08-21T11:27:06;99946.89;;;27.22;45.95
65013;BME280;51715;39.432;-77.518;2022-08-21T11:29:39;99948.21;;;26.99;46.19
65013;BME280;51715;39.432;-77.518;2022-08-21T11:32:24;99948.98;;;27.18;46.29
65013;BME280;51715;39.432;-77.518;2022-08-21T11:35:02;99949.78;;;26.79;46.30
65013;BME280;51715;39.432;-77.518;2022-08-21T11:37:46;99954.15;;;27.18;45.67
65013;BME280;51715;39.432;-77.518;2022-08-21T11:40:26;99957.22;;;27.40;45.39
65013;BME280;51715;39.432;-77.518;2022-08-21T11:43:06;99960.47;;;27.41;45.85
65013;BME280;51715;39.432;-77.518;2022-08-21T11:45:44;99962.48;;;27.52;45.07
65013;BME280;51715;39.432;-77.518;2022-08-21T11:48:31;99959.91;;;27.42;45.83
65013;BME280;51715;39.432;-77.518;2022-08-21T11:51:16;99961.79;;;27.45;45.48
65013;BME280;51715;39.432;-77.518;2022-08-21T11:53:49;99961.74;;;27.65;45.05
65013;BME280;51715;39.432;-77.518;2022-08-21T11:56:25;99961.88;;;27.53;45.48
65013;BME280;51715;39.432;-77.518;2022-08-21T11:58:58;99959.28;;;27.53;45.55
65013;BME280;51715;39.432;-77.518;2022-08-21T12:01:32;99957.79;;;27.11;47.06
65013;BME280;51715;39.432;-77.518;2022-08-21T12:04:03;99955.16;;;27.35;46.83
65013;BME280;51715;39.432;-77.518;2022-08-21T12:06:34;99953.67;;;27.51;46.86
65013;BME280;51715;39.432;-77.518;2022-08-21T12:09:33;99955.11;;;27.05;46.69
65013;BME280;51715;39.432;-77.518;2022-08-21T12:12:22;99961.16;;;27.20;46.10
65013;BME280;51715;39.432;-77.518;2022-08-21T12:15:05;99960.71;;;27.34;45.91
65013;BME280;51715;39.432;-77.518;2022-08-21T12:17:38;99961.16;;;27.29;46.50
65013;BME280;51715;39.432;-77.518;2022-08-21T12:20:23;99960.20;;;27.52;47.23
65013;BME280;51715;39.432;-77.518;2022-08-21T12:23:02;99956.50;;;27.53;46.94
65013;BME280;51715;39.432;-77.518;2022-08-21T12:25:38;99961.03;;;27.60;48.19
65013;BME280;51715;39.432;-77.518;2022-08-21T12:28:09;99958.43;;;27.38;47.58
65013;BME280;51715;39.432;-77.518;2022-08-21T12:30:41;99954.91;;;27.40;46.69
65013;BME280;51715;39.432;-77.518;2022-08-21T12:33:23;99951.81;;;27.40;46.26
65013;BME280;51715;39.432;-77.518;2022-08-21T12:35:53;99945.24;;;27.84;46.63
65013;BME280;51715;39.432;-77.518;2022-08-21T12:38:32;99943.81;;;27.76;46.98
65013;BME280;51715;39.432;-77.518;2022-08-21T12:41:05;99937.25;;;28.01;45.91
65013;BME280;51715;39.432;-77.518;2022-08-21T12:43:37;99931.04;;;28.03;45.31
65013;BME280;51715;39.432;-77.518;2022-08-21T12:46:13;99924.64;;;28.26;45.51
65013;BME280;51715;39.432;-77.518;2022-08-21T12:48:50;99920.30;;;27.86;45.69
65013;BME280;51715;39.432;-77.518;2022-08-21T12:51:24;99919.47;;;28.08;45.61
65013;BME280;51715;39.432;-77.518;2022-08-21T12:53:56;99926.02;;;27.93;46.39
65013;BME280;51715;39.432;-77.518;2022-08-21T12:56:28;99926.12;;;28.15;46.16
65013;BME280;51715;39.432;-77.518;2022-08-21T12:59:07;99929.23;;;27.00;46.44
65013;BME280;51715;39.432;-77.518;2022-08-21T13:01:37;99925.86;;;27.71;45.36
65013;BME280;51715;39.432;-77.518;2022-08-21T13:04:09;99924.33;;;27.95;45.14
65013;BME280;51715;39.432;-77.518;2022-08-21T13:06:42;99922.49;;;28.02;45.29